Time;durP1;ratioP1;P1;durP2;ratioP2;P2;SDS_P1;SDS_P2;PMS_P1;PMS_P2;Temp;Humidity;BMP_temperature;BMP_pressure;BME280_temperature;BME280_humidity;BME280_pressure;Samples;Min_cycle;Max_cycle;Signal;HPM_P1;HPM_P2
2023/12/01 00:01:29;;;;;;;10.93;9.17;;;6.00;99.90;;;;;;5045403;28;20205;-59
2023/12/01 00:03:56;;;;;;;10.73;9.30;;;6.10;99.90;;;;;;5046239;28;20206;-60
2023/12/01 00:06:23;;;;;;;12.40;8.83;;;5.90;99.90;;;;;;5041345;28;20222;-59
2023/12/01 00:08:49;;;;;;;10.80;8.67;;;5.80;99.90;;;;;;5041775;28;20777;-60
2023/12/01 00:11:16;;;;;;;11.73;8.97;;;5.90;99.90;;;;;;5044213;28;20260;-57
2023/12/01 00:13:43;;;;;;;13.47;9.27;;;6.10;99.90;;;;;;5045386;28;20209;-57
2023/12/01 00:16:11;;;;;;;11.57;9.70;;;6.20;99.90;;;;;;5043813;28;20320;-57
2023/12/01 00:18:37;;;;;;;12.63;10.07;;;6.20;99.90;;;;;;5041841;28;20198;-56
2023/12/01 00:21:05;;;;;;;12.37;9.40;;;6.30;99.90;;;;;;5042161;28;20210;-56
2023/12/01 00:23:31;;;;;;;11.17;9.20;;;6.30;99.90;;;;;;5044971;28;20729;-56
2023/12/01 00:25:58;;;;;;;11.40;9.17;;;6.20;99.90;;;;;;5045098;28;20229;-56
2023/12/01 00:28:25;;;;;;;11.97;9.67;;;6.20;99.90;;;;;;5041376;28;20739;-56
2023/12/01 00:30:52;;;;;;;12.97;9.60;;;6.20;99.90;;;;;;5041668;28;20641;-56
2023/12/01 00:33:20;;;;;;;12.20;9.53;;;6.20;99.90;;;;;;5043970;28;20625;-57
2023/12/01 00:35:46;;;;;;;10.67;9.10;;;6.20;99.90;;;;;;5045163;28;20229;-57
2023/12/01 00:38:13;;;;;;;13.93;10.13;;;6.30;99.90;;;;;;5042789;28;20753;-55
2023/12/01 00:40:40;;;;;;;12.53;9.97;;;6.30;99.90;;;;;;5041600;28;20208;-57
2023/12/01 00:43:09;;;;;;;14.03;11.20;;;6.40;99.90;;;;;;5042038;28;20217;-57
2023/12/01 00:45:36;;;;;;;12.83;9.70;;;6.40;99.90;;;;;;5044784;28;20226;-57
2023/12/01 00:48:03;;;;;;;15.57;10.37;;;6.40;99.90;;;;;;5044609;28;20709;-57
2023/12/01 00:50:31;;;;;;;15.47;11.23;;;6.40;99.90;;;;;;5041148;28;20668;-57
2023/12/01 00:52:58;;;;;;;11.13;9.77;;;6.50;99.90;;;;;;5041199;28;20211;-56
2023/12/01 00:55:24;;;;;;;11.17;9.17;;;6.50;99.90;;;;;;5044312;28;20244;-57
2023/12/01 00:57:53;;;;;;;13.00;10.13;;;6.60;99.90;;;;;;5044370;28;20675;-57
2023/12/01 01:00:20;;;;;;;11.17;9.03;;;6.60;99.90;;;;;;5041681;28;20198;-56
2023/12/01 01:02:47;;;;;;;12.93;9.80;;;6.60;99.90;;;;;;5041075;28;20218;-56
2023/12/01 01:05:13;;;;;;;15.17;11.63;;;6.60;99.90;;;;;;5042538;28;20633;-56
2023/12/01 01:07:41;;;;;;;12.67;10.20;;;6.50;99.90;;;;;;5044250;28;20279;-57
2023/12/01 01:10:08;;;;;;;14.27;10.63;;;6.50;99.90;;;;;;5043320;28;20248;-58
2023/12/01 01:12:35;;;;;;;13.13;10.17;;;6.50;99.90;;;;;;5040781;28;20565;-57
2023/12/01 01:15:03;;;;;;;12.07;9.63;;;6.50;99.90;;;;;;5040790;28;20214;-53
2023/12/01 01:17:30;;;;;;;11.97;10.37;;;6.50;99.90;;;;;;5043853;28;20320;-57
2023/12/01 01:19:58;;;;;;;14.47;11.13;;;6.50;99.90;;;;;;5044302;28;20206;-57
2023/12/01 01:22:25;;;;;;;13.37;10.60;;;6.50;99.90;;;;;;5040819;28;20313;-57
2023/12/01 01:24:53;;;;;;;12.27;10.50;;;6.50;99.90;;;;;;5040431;28;20828;-57
2023/12/01 01:27:20;;;;;;;11.60;9.97;;;6.40;99.90;;;;;;5042595;28;20226;-55
2023/12/01 01:29:47;;;;;;;12.80;10.63;;;6.40;99.90;;;;;;5043828;28;20308;-57
2023/12/01 01:32:14;;;;;;;10.50;9.13;;;6.40;99.90;;;;;;5042418;28;20209;-57
2023/12/01 01:34:40;;;;;;;11.70;10.07;;;6.50;99.90;;;;;;5039937;28;20202;-57
2023/12/01 01:37:07;;;;;;;12.23;10.43;;;6.50;99.90;;;;;;5040638;28;20230;-57
2023/12/01 01:39:34;;;;;;;11.87;9.77;;;6.60;99.90;;;;;;5044037;28;20225;-57
2023/12/01 01:42:02;;;;;;;11.30;9.23;;;6.60;99.90;;;;;;5043634;28;20292;-57
2023/12/01 01:44:29;;;;;;;10.87;9.57;;;6.60;99.90;;;;;;5040459;28;20234;-57
2023/12/01 01:46:56;;;;;;;13.10;9.60;;;6.50;99.90;;;;;;5040241;28;20260;-57
2023/12/01 01:49:26;;;;;;;12.97;10.57;;;6.50;99.90;;;;;;5042868;28;20280;-57
2023/12/01 01:51:53;;;;;;;11.23;9.57;;;6.50;99.90;;;;;;5043508;28;20209;-55
2023/12/01 01:54:23;;;;;;;11.23;9.60;;;6.40;99.90;;;;;;5041070;28;20206;-57
2023/12/01 01:56:50;;;;;;;10.33;9.23;;;6.40;99.90;;;;;;5039628;28;20226;-57
2023/12/01 01:59:20;;;;;;;11.13;9.10;;;6.50;99.90;;;;;;5041717;28;20211;-57
2023/12/01 02:01:46;;;;;;;13.03;10.40;;;6.40;99.90;;;;;;5043302;28;20212;-57
2023/12/01 02:04:13;;;;;;;12.90;10.43;;;6.40;99.90;;;;;;5041878;28;20217;-57
2023/12/01 02:06:40;;;;;;;11.43;9.70;;;6.40;99.90;;;;;;5039762;28;20222;-57
2023/12/01 02:09:07;;;;;;;11.77;9.53;;;6.40;99.90;;;;;;5040246;28;20276;-57
2023/12/01 02:11:35;;;;;;;11.63;10.27;;;6.40;99.90;;;;;;5043108;28;20667;-57
2023/12/01 02:14:02;;;;;;;11.33;9.60;;;6.50;99.90;;;;;;5043330;28;20251;-56
2023/12/01 02:16:30;;;;;;;11.53;10.20;;;6.50;99.90;;;;;;5039397;28;20272;-57
2023/12/01 02:18:56;;;;;;;12.47;10.53;;;6.50;99.90;;;;;;5039710;28;20213;-57
2023/12/01 02:21:25;;;;;;;13.80;9.87;;;6.50;99.90;;;;;;5042247;28;20217;-57
2023/12/01 02:23:54;;;;;;;12.93;10.27;;;6.60;99.90;;;;;;5042939;28;20209;-57
2023/12/01 02:26:21;;;;;;;13.23;10.70;;;6.60;99.90;;;;;;5040546;28;20236;-56
2023/12/01 02:28:47;;;;;;;12.90;10.13;;;6.50;99.90;;;;;;5039617;28;20253;-56
2023/12/01 02:31:14;;;;;;;12.10;10.03;;;6.50;99.90;;;;;;5040738;28;20214;-57
2023/12/01 02:33:41;;;;;;;12.80;10.73;;;6.50;99.90;;;;;;5042916;28;20706;-56
2023/12/01 02:36:11;;;;;;;11.77;9.90;;;6.50;99.90;;;;;;5041773;28;20283;-56
2023/12/01 02:38:38;;;;;;;12.23;10.30;;;6.50;99.90;;;;;;5039459;28;20230;-56
2023/12/01 02:41:06;;;;;;;11.70;9.80;;;6.60;99.90;;;;;;5039372;28;20215;-57
2023/12/01 02:43:33;;;;;;;11.03;9.77;;;6.60;99.90;;;;;;5042909;28;20675;-57
2023/12/01 02:46:00;;;;;;;11.53;9.60;;;6.50;99.90;;;;;;5042830;28;20235;-57
2023/12/01 02:48:26;;;;;;;11.70;9.20;;;6.40;99.90;;;;;;5043261;28;20264;-56
2023/12/01 02:50:53;;;;;;;14.63;10.90;;;6.60;99.90;;;;;;5043593;28;20230;-56
2023/12/01 02:53:20;;;;;;;11.67;9.47;;;6.60;99.90;;;;;;5045046;28;20206;-55
2023/12/01 02:55:46;;;;;;;11.07;9.90;;;6.60;99.90;;;;;;5047182;28;20225;-56
2023/12/01 02:58:14;;;;;;;14.63;9.77;;;6.60;99.90;;;;;;5046160;28;20246;-56
2023/12/01 03:00:42;;;;;;;10.60;9.50;;;6.50;99.90;;;;;;5043332;28;20206;-57
2023/12/01 03:03:09;;;;;;;11.10;9.57;;;6.50;99.90;;;;;;5043705;28;20220;-56
2023/12/01 03:05:36;;;;;;;11.03;9.67;;;6.50;99.90;;;;;;5046490;28;20281;-57
2023/12/01 03:08:03;;;;;;;12.57;9.93;;;6.60;99.90;;;;;;5046605;28;20209;-57
2023/12/01 03:10:29;;;;;;;11.90;9.60;;;6.50;99.90;;;;;;5042952;28;20648;-57
2023/12/01 03:12:56;;;;;;;11.00;9.07;;;6.50;99.90;;;;;;5043151;28;20206;-56
2023/12/01 03:15:24;;;;;;;10.70;9.20;;;6.50;99.90;;;;;;5045222;28;20210;-56
2023/12/01 03:17:51;;;;;;;10.20;8.93;;;6.50;99.90;;;;;;5046166;28;20210;-58
2023/12/01 03:20:18;;;;;;;10.97;9.80;;;6.50;99.90;;;;;;5044751;28;20210;-58
2023/12/01 03:22:46;;;;;;;11.27;9.73;;;6.60;99.90;;;;;;5042997;28;20217;-54
2023/12/01 03:25:13;;;;;;;10.80;9.70;;;6.50;99.90;;;;;;5044200;28;20222;-57
2023/12/01 03:27:41;;;;;;;11.63;10.03;;;6.30;99.90;;;;;;5046695;28;20229;-57
2023/12/01 03:30:14;;;;;;;11.97;10.23;;;6.20;99.90;;;;;;5046136;28;20221;-56
2023/12/01 03:32:47;;;;;;;13.87;11.07;;;6.10;99.90;;;;;;5042907;28;20317;-56
2023/12/01 03:35:15;;;;;;;12.63;10.50;;;5.80;99.90;;;;;;5043966;28;20256;-56
2023/12/01 03:37:42;;;;;;;12.60;10.30;;;5.30;99.90;;;;;;5046052;28;20201;-56
2023/12/01 03:40:12;;;;;;;12.73;10.40;;;5.10;99.90;;;;;;5045789;28;20287;-56
2023/12/01 03:42:41;;;;;;;13.03;10.93;;;5.10;99.90;;;;;;5043014;28;20229;-57
2023/12/01 03:45:10;;;;;;;12.70;10.63;;;4.90;99.90;;;;;;5042699;28;20210;-57
2023/12/01 03:47:37;;;;;;;13.67;10.50;;;4.90;99.90;;;;;;5046031;28;20230;-56
2023/12/01 03:50:06;;;;;;;13.60;10.87;;;5.00;99.90;;;;;;5045990;28;20225;-57
2023/12/01 03:52:33;;;;;;;11.77;9.87;;;5.10;99.90;;;;;;5045777;28;20202;-56
2023/12/01 03:54:59;;;;;;;11.73;10.03;;;5.10;99.90;;;;;;5045582;28;20240;-56
2023/12/01 03:57:27;;;;;;;12.23;10.33;;;5.00;99.90;;;;;;5042149;28;20256;-57
2023/12/01 03:59:54;;;;;;;12.67;10.07;;;4.90;99.90;;;;;;5042458;28;20563;-56
2023/12/01 04:02:21;;;;;;;12.20;10.27;;;4.90;99.90;;;;;;5043902;28;20676;-56
2023/12/01 04:04:48;;;;;;;12.80;10.70;;;4.60;99.90;;;;;;5045763;28;20352;-58
2023/12/01 04:07:16;;;;;;;12.57;10.37;;;4.50;99.90;;;;;;5044286;28;20233;-57
2023/12/01 04:09:43;;;;;;;12.33;9.53;;;4.70;99.90;;;;;;5041945;28;20605;-57
2023/12/01 04:12:09;;;;;;;12.57;10.03;;;4.60;99.90;;;;;;5041979;28;20214;-57
2023/12/01 04:14:36;;;;;;;42.70;29.37;;;4.40;99.90;;;;;;5045513;28;20198;-57
2023/12/01 04:17:08;;;;;;;11.00;9.60;;;4.30;99.90;;;;;;5045251;28;20234;-56
2023/12/01 04:19:35;;;;;;;9.63;8.63;;;4.40;99.90;;;;;;5042019;28;20221;-56
2023/12/01 04:22:02;;;;;;;11.87;9.83;;;4.40;99.90;;;;;;5041754;28;20206;-56
2023/12/01 04:24:31;;;;;;;11.13;8.97;;;4.50;99.90;;;;;;5044559;28;20201;-56
2023/12/01 04:26:58;;;;;;;10.57;8.90;;;4.60;99.90;;;;;;5038482;28;20233;-55
2023/12/01 04:29:24;;;;;;;11.50;9.37;;;4.60;99.90;;;;;;5043796;28;20691;-56
2023/12/01 04:31:51;;;;;;;11.50;9.47;;;4.70;99.90;;;;;;5045053;28;20201;-55
2023/12/01 04:34:20;;;;;;;11.50;9.93;;;4.90;99.90;;;;;;5043646;28;20209;-55
2023/12/01 04:36:47;;;;;;;11.97;9.70;;;5.10;99.90;;;;;;5041347;28;20230;-55
2023/12/01 04:39:14;;;;;;;13.17;10.97;;;5.20;99.90;;;;;;5042073;28;20672;-55
2023/12/01 04:41:42;;;;;;;10.77;9.50;;;5.30;99.90;;;;;;5045073;28;20296;-55
2023/12/01 04:44:09;;;;;;;12.33;10.67;;;5.40;99.90;;;;;;5044731;28;20205;-55
2023/12/01 04:46:35;;;;;;;11.33;9.30;;;5.50;99.90;;;;;;5041057;28;20222;-56
2023/12/01 04:49:02;;;;;;;11.97;10.30;;;5.60;99.90;;;;;;5041326;28;20214;-55
2023/12/01 04:51:29;;;;;;;10.87;9.07;;;5.70;99.90;;;;;;5044047;28;20225;-56
2023/12/01 04:53:56;;;;;;;11.20;9.20;;;5.80;99.90;;;;;;5044508;28;20213;-56
2023/12/01 04:56:22;;;;;;;11.30;9.30;;;5.80;99.90;;;;;;5042499;28;20226;-55
2023/12/01 04:58:50;;;;;;;10.33;9.13;;;5.90;99.90;;;;;;5041036;28;20668;-56
2023/12/01 05:01:17;;;;;;;10.87;8.97;;;5.90;99.90;;;;;;5042155;28;20206;-55
2023/12/01 05:03:44;;;;;;;10.90;9.00;;;6.00;99.90;;;;;;5044602;28;20331;-56
2023/12/01 05:06:10;;;;;;;11.83;9.97;;;6.00;99.90;;;;;;5043890;28;20229;-55
2023/12/01 05:08:37;;;;;;;13.13;9.70;;;6.00;99.90;;;;;;5040880;28;20210;-56
2023/12/01 05:11:04;;;;;;;11.90;9.30;;;6.00;99.90;;;;;;5039901;28;20711;-56
2023/12/01 05:13:31;;;;;;;15.70;10.20;;;5.90;99.90;;;;;;5043679;28;20583;-55
2023/12/01 05:16:00;;;;;;;14.03;11.67;;;5.90;99.90;;;;;;5044052;28;20234;-56
2023/12/01 05:18:26;;;;;;;13.53;9.93;;;5.80;99.90;;;;;;5041647;28;20217;-56
2023/12/01 05:20:53;;;;;;;13.73;9.00;;;5.80;99.90;;;;;;5040619;28;20627;-55
2023/12/01 05:23:20;;;;;;;13.47;10.17;;;5.80;99.90;;;;;;5042070;28;20210;-56
2023/12/01 05:25:50;;;;;;;10.93;9.57;;;5.80;99.90;;;;;;5044248;28;20485;-57
2023/12/01 05:28:17;;;;;;;11.90;9.40;;;5.80;99.90;;;;;;5042877;28;20328;-57
2023/12/01 05:30:46;;;;;;;11.03;9.43;;;5.80;99.90;;;;;;5040333;28;20271;-57
2023/12/01 05:33:14;;;;;;;12.43;10.13;;;5.90;99.90;;;;;;5040764;28;20228;-56
2023/12/01 05:35:42;;;;;;;12.80;9.53;;;5.90;99.90;;;;;;5043822;28;20321;-55
2023/12/01 05:38:09;;;;;;;11.63;9.67;;;6.00;99.90;;;;;;5043856;28;20205;-56
2023/12/01 05:40:37;;;;;;;12.17;9.73;;;6.00;99.90;;;;;;5040272;28;20209;-56
2023/12/01 05:43:05;;;;;;;12.67;9.63;;;6.10;99.90;;;;;;5040441;28;20206;-56
2023/12/01 05:45:34;;;;;;;11.53;9.47;;;6.10;99.90;;;;;;5043149;28;20228;-56
2023/12/01 05:48:02;;;;;;;12.17;9.80;;;6.20;99.90;;;;;;5043651;28;20213;-56
2023/12/01 05:50:32;;;;;;;11.87;9.87;;;6.20;99.90;;;;;;5041016;28;20291;-56
2023/12/01 05:53:00;;;;;;;12.60;10.17;;;6.20;99.90;;;;;;5040187;28;20202;-56
2023/12/01 05:55:28;;;;;;;13.37;10.43;;;6.10;99.90;;;;;;5042072;28;20699;-56
2023/12/01 05:57:56;;;;;;;14.07;11.33;;;6.10;99.90;;;;;;5043325;28;20205;-56
2023/12/01 06:00:28;;;;;;;13.73;10.43;;;6.00;99.90;;;;;;5041430;28;20611;-57
2023/12/01 06:02:55;;;;;;;14.50;10.30;;;6.00;99.90;;;;;;5040077;28;20249;-55
2023/12/01 06:05:23;;;;;;;12.57;10.20;;;5.90;99.90;;;;;;5041551;28;20256;-56
2023/12/01 06:07:54;;;;;;;12.57;9.90;;;5.90;99.90;;;;;;5043191;28;20209;-56
2023/12/01 06:10:22;;;;;;;11.60;9.50;;;5.90;99.90;;;;;;5041656;28;20242;-56
2023/12/01 06:12:49;;;;;;;11.67;9.17;;;5.90;99.90;;;;;;5039727;28;20210;-57
2023/12/01 06:15:17;;;;;;;12.10;10.03;;;5.90;99.90;;;;;;5040080;28;20611;-56
2023/12/01 06:17:46;;;;;;;13.30;9.63;;;5.90;99.90;;;;;;5042655;28;20219;-56
2023/12/01 06:20:20;;;;;;;12.17;9.63;;;5.90;99.90;;;;;;5042728;28;20260;-57
2023/12/01 06:22:48;;;;;;;14.37;9.60;;;5.80;99.90;;;;;;5039878;28;20214;-56
2023/12/01 06:25:17;;;;;;;12.00;9.90;;;5.70;99.90;;;;;;5040018;28;20252;-56
2023/12/01 06:27:44;;;;;;;12.30;9.67;;;5.70;99.90;;;;;;5043094;28;20231;-56
2023/12/01 06:30:12;;;;;;;14.13;9.97;;;5.70;99.90;;;;;;5043121;28;20253;-54
2023/12/01 06:32:40;;;;;;;11.17;9.40;;;5.80;99.90;;;;;;5043344;28;20209;-56
2023/12/01 06:35:09;;;;;;;11.77;9.60;;;5.90;99.90;;;;;;5042968;28;20213;-56
2023/12/01 06:37:36;;;;;;;13.10;9.03;;;5.90;99.90;;;;;;5039259;28;20242;-56
2023/12/01 06:40:04;;;;;;;13.83;9.93;;;5.90;99.90;;;;;;5039310;28;20210;-56
2023/12/01 06:42:32;;;;;;;11.30;9.23;;;5.90;99.90;;;;;;5041732;28;20739;-55
2023/12/01 06:44:58;;;;;;;12.40;9.90;;;6.00;99.90;;;;;;5042943;28;20220;-56
2023/12/01 06:47:25;;;;;;;10.40;9.30;;;5.90;99.90;;;;;;5040733;28;20734;-56
2023/12/01 06:49:52;;;;;;;10.60;9.50;;;5.90;99.90;;;;;;5039376;28;20202;-56
2023/12/01 06:52:18;;;;;;;10.60;9.37;;;5.80;99.90;;;;;;5039901;28;20316;-56
2023/12/01 06:54:45;;;;;;;13.63;11.23;;;5.70;99.90;;;;;;5042670;28;20292;-56
2023/12/01 06:57:12;;;;;;;14.23;10.53;;;5.80;99.90;;;;;;5042641;28;20221;-56
2023/12/01 06:59:40;;;;;;;15.20;10.70;;;5.70;99.90;;;;;;5043201;28;20205;-55
2023/12/01 07:02:07;;;;;;;10.60;9.40;;;5.80;99.90;;;;;;5042744;28;20205;-55
2023/12/01 07:04:33;;;;;;;11.10;9.33;;;5.80;99.90;;;;;;5039780;28;20210;-56
2023/12/01 07:07:00;;;;;;;12.90;9.83;;;5.90;99.90;;;;;;5039056;28;20277;-56
2023/12/01 07:09:27;;;;;;;19.23;13.70;;;5.90;99.90;;;;;;5040918;28;20222;-56
2023/12/01 07:11:54;;;;;;;12.60;10.43;;;5.90;99.90;;;;;;5042738;28;20222;-55
2023/12/01 07:14:23;;;;;;;13.40;10.00;;;5.80;99.90;;;;;;5041253;28;20659;-55
2023/12/01 07:16:51;;;;;;;13.07;11.03;;;5.80;99.90;;;;;;5038826;28;20252;-56
2023/12/01 07:19:18;;;;;;;12.20;10.43;;;5.80;99.90;;;;;;5039632;28;20211;-57
2023/12/01 07:21:46;;;;;;;12.97;10.50;;;5.80;99.90;;;;;;5042223;28;20205;-57
2023/12/01 07:24:12;;;;;;;13.60;10.43;;;5.80;99.90;;;;;;5042626;28;20206;-56
2023/12/01 07:26:39;;;;;;;10.77;9.03;;;5.80;99.90;;;;;;5042523;28;20222;-57
2023/12/01 07:29:06;;;;;;;10.17;9.03;;;5.90;99.90;;;;;;5042527;28;20205;-57
2023/12/01 07:31:34;;;;;;;10.80;9.17;;;6.00;99.90;;;;;;5039375;28;20230;-57
2023/12/01 07:34:02;;;;;;;12.50;9.13;;;6.00;99.90;;;;;;5041610;28;20267;-57
2023/12/01 07:36:30;;;;;;;9.97;8.97;;;6.00;99.90;;;;;;5044326;28;20229;-57
2023/12/01 07:38:56;;;;;;;11.10;8.87;;;6.10;99.90;;;;;;5046156;28;20206;-56
2023/12/01 07:41:23;;;;;;;10.97;8.87;;;6.10;99.90;;;;;;5044648;28;20209;-56
2023/12/01 07:43:52;;;;;;;10.47;8.57;;;6.20;99.90;;;;;;5042419;28;20206;-56
2023/12/01 07:46:20;;;;;;;13.77;10.27;;;6.20;99.90;;;;;;5042645;28;20727;-58
2023/12/01 07:48:46;;;;;;;11.67;9.00;;;6.20;99.90;;;;;;5045759;28;20267;-57
2023/12/01 07:51:16;;;;;;;10.10;8.57;;;6.30;99.90;;;;;;5045771;28;20225;-56
2023/12/01 07:53:45;;;;;;;9.90;8.90;;;6.30;99.90;;;;;;5045800;28;20667;-56
2023/12/01 07:56:12;;;;;;;15.20;11.93;;;6.40;99.90;;;;;;5045551;28;20249;-56
2023/12/01 07:58:39;;;;;;;13.10;10.27;;;6.40;99.90;;;;;;5042268;28;20723;-56
2023/12/01 08:01:06;;;;;;;9.60;8.27;;;6.50;99.90;;;;;;5042127;28;20253;-57
2023/12/01 08:03:33;;;;;;;8.23;7.37;;;6.50;99.90;;;;;;5044430;28;20586;-55
2023/12/01 08:05:59;;;;;;;9.03;8.13;;;6.50;99.90;;;;;;5045263;28;20635;-58
2023/12/01 08:08:27;;;;;;;8.93;8.03;;;6.50;99.90;;;;;;5043586;28;20205;-58
2023/12/01 08:10:54;;;;;;;9.20;8.20;;;6.50;99.90;;;;;;5041863;28;20276;-58
2023/12/01 08:13:24;;;;;;;9.97;8.27;;;6.60;99.90;;;;;;5042756;28;20206;-57
2023/12/01 08:15:50;;;;;;;11.87;8.53;;;6.50;99.90;;;;;;5045037;28;20230;-57
2023/12/01 08:18:17;;;;;;;10.03;8.67;;;6.50;99.90;;;;;;5044977;28;20267;-57
2023/12/01 08:20:44;;;;;;;9.53;8.53;;;6.50;99.90;;;;;;5042097;28;20232;-57
2023/12/01 08:23:11;;;;;;;10.40;8.87;;;6.50;99.90;;;;;;5041930;28;20289;-57
2023/12/01 08:25:40;;;;;;;9.20;8.23;;;6.50;99.90;;;;;;5044650;28;20256;-57
2023/12/01 08:28:06;;;;;;;8.57;7.53;;;6.60;99.90;;;;;;5044819;28;20259;-57
2023/12/01 08:30:33;;;;;;;11.13;8.37;;;6.60;99.90;;;;;;5042119;28;20209;-58
2023/12/01 08:33:00;;;;;;;13.93;8.97;;;6.60;99.90;;;;;;5041990;28;20276;-57
2023/12/01 08:35:26;;;;;;;9.93;8.23;;;6.70;99.90;;;;;;5043030;28;20268;-57
2023/12/01 08:37:53;;;;;;;12.63;10.13;;;6.60;99.90;;;;;;5044647;28;20217;-57
2023/12/01 08:40:20;;;;;;;8.60;7.70;;;6.60;99.90;;;;;;5044095;28;20212;-56
2023/12/01 08:42:52;;;;;;;9.27;7.57;;;6.70;99.90;;;;;;5041378;28;20203;-56
2023/12/01 08:45:19;;;;;;;9.63;7.60;;;6.80;99.90;;;;;;5041507;28;20210;-57
2023/12/01 08:47:45;;;;;;;8.50;7.67;;;6.80;99.90;;;;;;5044553;28;20209;-57
2023/12/01 08:50:11;;;;;;;11.03;9.93;;;6.90;99.90;;;;;;5044690;28;20213;-56
2023/12/01 08:52:38;;;;;;;8.67;7.73;;;7.00;99.90;;;;;;5041141;28;20754;-58
2023/12/01 08:55:05;;;;;;;11.70;10.40;;;7.10;99.90;;;;;;5041120;28;20206;-57
2023/12/01 08:57:32;;;;;;;12.30;10.93;;;7.00;99.90;;;;;;5042867;28;20233;-57
2023/12/01 09:00:00;;;;;;;12.17;10.53;;;6.90;99.90;;;;;;5044635;28;20227;-56
2023/12/01 09:02:27;;;;;;;13.73;10.10;;;6.70;99.90;;;;;;5042907;28;20268;-57
2023/12/01 09:04:54;;;;;;;10.90;8.47;;;6.80;99.90;;;;;;5041126;28;20206;-57
2023/12/01 09:07:21;;;;;;;10.30;8.97;;;6.90;99.90;;;;;;5041554;28;20222;-57
2023/12/01 09:09:48;;;;;;;8.73;7.83;;;7.10;99.90;;;;;;5044310;28;20284;-55
2023/12/01 09:12:14;;;;;;;8.90;7.37;;;7.00;99.90;;;;;;5043900;28;20225;-57
2023/12/01 09:14:41;;;;;;;10.73;8.60;;;6.80;99.90;;;;;;5040700;28;20206;-56
2023/12/01 09:17:09;;;;;;;11.47;8.17;;;6.40;99.90;;;;;;5040368;28;20313;-56
2023/12/01 09:19:36;;;;;;;8.40;7.60;;;6.30;99.90;;;;;;5043269;28;20206;-56
2023/12/01 09:22:03;;;;;;;9.27;8.20;;;6.50;99.90;;;;;;5043846;28;20201;-57
2023/12/01 09:24:29;;;;;;;8.50;7.70;;;6.70;99.90;;;;;;5042195;28;20300;-57
2023/12/01 09:26:56;;;;;;;8.27;7.47;;;7.00;99.90;;;;;;5040358;28;20713;-57
2023/12/01 09:29:22;;;;;;;8.87;7.97;;;6.70;99.90;;;;;;5041189;28;20680;-57
2023/12/01 09:31:49;;;;;;;12.57;9.67;;;6.30;99.90;;;;;;5043742;28;20225;-57
2023/12/01 09:34:17;;;;;;;8.10;7.30;;;6.40;99.90;;;;;;5043583;28;20560;-57
2023/12/01 09:36:44;;;;;;;7.87;7.07;;;6.50;99.90;;;;;;5043528;28;20221;-56
2023/12/01 09:39:11;;;;;;;9.17;8.17;;;6.50;99.90;;;;;;5043659;28;20580;-58
2023/12/01 09:41:39;;;;;;;8.27;7.43;;;6.30;99.90;;;;;;5040441;28;20256;-57
2023/12/01 09:44:07;;;;;;;9.13;8.07;;;6.00;99.90;;;;;;5040170;28;20214;-57
2023/12/01 09:46:36;;;;;;;10.50;9.40;;;5.80;99.90;;;;;;5042128;28;20229;-57
2023/12/01 09:49:05;;;;;;;12.37;10.27;;;5.60;99.90;;;;;;5043542;28;20210;-57
2023/12/01 09:51:36;;;;;;;9.13;8.23;;;5.90;99.90;;;;;;5041074;28;20221;-57
2023/12/01 09:54:03;;;;;;;9.10;7.70;;;6.00;99.90;;;;;;5040533;28;20211;-57
2023/12/01 09:56:31;;;;;;;8.57;7.70;;;6.20;99.90;;;;;;5040880;28;20233;-57
2023/12/01 09:58:59;;;;;;;8.97;8.07;;;6.40;99.90;;;;;;5043216;28;20206;-58
2023/12/01 10:01:25;;;;;;;9.00;8.10;;;6.50;99.90;;;;;;5041764;28;20202;-57
2023/12/01 10:03:53;;;;;;;8.73;7.83;;;6.50;99.90;;;;;;5039594;28;20206;-56
2023/12/01 10:06:20;;;;;;;8.70;7.90;;;6.50;99.90;;;;;;5039528;28;20230;-57
2023/12/01 10:08:49;;;;;;;10.70;8.00;;;6.20;99.90;;;;;;5042991;28;20206;-57
2023/12/01 10:11:21;;;;;;;8.83;7.93;;;5.60;99.90;;;;;;5042924;28;20694;-57
2023/12/01 10:13:49;;;;;;;8.70;7.80;;;5.40;99.90;;;;;;5043766;28;20696;-57
2023/12/01 10:16:16;;;;;;;9.10;8.20;;;5.40;99.90;;;;;;5043003;28;20268;-57
2023/12/01 10:18:56;;;;;;;8.90;8.00;;;5.50;99.90;;;;;;5039727;28;20293;-56
2023/12/01 10:21:40;;;;;;;9.90;8.90;;;5.60;99.90;;;;;;5040038;28;20286;-57
2023/12/01 10:24:15;;;;;;;10.37;8.60;;;5.60;99.90;;;;;;5043056;28;20205;-57
2023/12/01 10:26:42;;;;;;;9.70;8.50;;;5.70;99.90;;;;;;5039246;28;20718;-57
2023/12/01 10:29:23;;;;;;;8.13;7.13;;;5.90;99.90;;;;;;5039992;28;20297;-56
2023/12/01 10:31:50;;;;;;;8.40;7.60;;;5.80;99.90;;;;;;5043757;28;20221;-57
2023/12/01 10:34:17;;;;;;;9.30;8.33;;;5.50;99.90;;;;;;5043133;28;20206;-56
2023/12/01 10:36:44;;;;;;;10.53;9.10;;;5.50;99.90;;;;;;5038796;28;20275;-60
2023/12/01 10:39:11;;;;;;;9.77;8.77;;;5.70;99.90;;;;;;5039659;28;20210;-61
2023/12/01 10:41:41;;;;;;;10.43;9.17;;;5.80;99.90;;;;;;5043933;28;20212;-62
2023/12/01 10:44:09;;;;;;;9.40;8.40;;;5.50;99.90;;;;;;5042855;28;20206;-61
2023/12/01 10:46:38;;;;;;;11.47;8.47;;;5.20;99.90;;;;;;5042353;28;20283;-63
2023/12/01 10:49:07;;;;;;;11.30;8.93;;;5.00;99.90;;;;;;5042366;28;20343;-62
2023/12/01 10:51:34;;;;;;;11.87;10.03;;;5.20;99.90;;;;;;5040710;28;20291;-60
2023/12/01 10:54:02;;;;;;;11.00;9.07;;;5.50;99.90;;;;;;5039265;28;20264;-57
2023/12/01 10:56:32;;;;;;;10.60;9.37;;;5.80;99.90;;;;;;5040072;28;20703;-59
2023/12/01 10:59:02;;;;;;;9.83;8.83;;;6.20;99.90;;;;;;5042801;28;20607;-59
2023/12/01 11:01:29;;;;;;;11.20;9.40;;;6.50;99.90;;;;;;5041564;28;20236;-59
2023/12/01 11:03:58;;;;;;;11.87;10.20;;;6.40;99.90;;;;;;5039113;28;20287;-60
2023/12/01 11:06:34;;;;;;;11.33;9.50;;;6.40;99.90;;;;;;5039632;28;20232;-59
2023/12/01 11:09:11;;;;;;;11.63;9.13;;;6.30;99.90;;;;;;5045513;28;20208;-61
2023/12/01 11:11:45;;;;;;;11.93;9.57;;;5.80;99.90;;;;;;5043624;28;20252;-57
2023/12/01 11:14:18;;;;;;;11.10;9.10;;;5.40;99.90;;;;;;5043152;28;20278;-58
2023/12/01 11:16:47;;;;;;;14.40;10.57;;;5.10;99.90;;;;;;5046028;28;20229;-60
2023/12/01 11:19:13;;;;;;;14.27;9.80;;;5.10;99.90;;;;;;5046373;28;20228;-59
2023/12/01 11:21:42;;;;;;;12.53;9.67;;;5.40;99.90;;;;;;5043464;28;20206;-59
2023/12/01 11:24:25;;;;;;;10.83;9.33;;;5.30;99.90;;;;;;5042857;28;20742;-58
2023/12/01 11:26:52;;;;;;;11.57;9.23;;;4.90;99.90;;;;;;5046883;28;20770;-58
2023/12/01 11:29:28;;;;;;;11.93;9.53;;;5.00;99.90;;;;;;5046398;28;20628;-63
2023/12/01 11:31:57;;;;;;;11.27;9.63;;;5.10;99.90;;;;;;5047146;28;20656;-62
2023/12/01 11:34:25;;;;;;;11.67;9.77;;;5.10;99.90;;;;;;5045074;28;20630;-59
2023/12/01 11:36:53;;;;;;;11.17;9.53;;;5.40;99.90;;;;;;5042544;28;20222;-59
2023/12/01 11:39:26;;;;;;;11.60;10.37;;;5.60;99.90;;;;;;5042736;28;20264;-58
2023/12/01 11:42:13;;;;;;;10.93;9.80;;;5.90;99.90;;;;;;5047510;28;20613;-59
2023/12/01 11:44:42;;;;;;;12.57;9.50;;;6.30;99.90;;;;;;5043072;28;20209;-58
2023/12/01 11:47:12;;;;;;;11.30;10.03;;;6.30;99.90;;;;;;5042210;28;20712;-59
2023/12/01 11:49:40;;;;;;;11.83;9.90;;;6.30;99.90;;;;;;5045023;28;20206;-58
2023/12/01 11:52:08;;;;;;;10.37;9.27;;;6.40;99.90;;;;;;5045646;28;20221;-58
2023/12/01 11:54:36;;;;;;;14.20;9.77;;;6.30;99.90;;;;;;5043760;28;20248;-57
2023/12/01 11:57:06;;;;;;;10.00;8.90;;;6.20;99.90;;;;;;5042082;28;20313;-59
2023/12/01 11:59:32;;;;;;;11.03;9.47;;;6.00;99.90;;;;;;5043486;28;20564;-57
2023/12/01 12:02:02;;;;;;;11.27;9.87;;;5.80;99.90;;;;;;5045373;28;20206;-59
2023/12/01 12:04:28;;;;;;;11.70;9.63;;;5.70;99.90;;;;;;5042781;28;20199;-59
2023/12/01 12:07:00;;;;;;;11.00;9.83;;;5.70;99.90;;;;;;5045074;28;20223;-58
2023/12/01 12:09:28;;;;;;;10.57;9.47;;;5.60;99.90;;;;;;5044282;28;20236;-59
2023/12/01 12:11:55;;;;;;;11.73;10.53;;;5.40;99.90;;;;;;5056586;28;20229;-59
2023/12/01 12:14:23;;;;;;;13.47;10.87;;;5.20;99.90;;;;;;5045272;28;20213;-57
2023/12/01 12:16:49;;;;;;;11.97;9.77;;;5.10;99.90;;;;;;5041647;28;20226;-59
2023/12/01 12:19:18;;;;;;;10.63;9.53;;;5.10;99.90;;;;;;5041516;28;20687;-59
2023/12/01 12:21:45;;;;;;;12.50;9.60;;;5.10;99.90;;;;;;5044545;28;20297;-59
2023/12/01 12:24:12;;;;;;;10.37;9.20;;;5.30;99.90;;;;;;5045333;28;20209;-58
2023/12/01 12:26:39;;;;;;;10.60;9.57;;;5.30;99.90;;;;;;5042472;28;20295;-59
2023/12/01 12:29:07;;;;;;;9.70;8.57;;;5.20;99.90;;;;;;5046675;28;20209;-59
2023/12/01 12:31:36;;;;;;;10.87;8.77;;;5.30;99.90;;;;;;5043195;28;20209;-59
2023/12/01 12:34:05;;;;;;;10.67;8.57;;;5.20;99.90;;;;;;5041587;28;20635;-59
2023/12/01 12:36:34;;;;;;;10.43;9.03;;;5.30;99.90;;;;;;5042374;28;20225;-62
2023/12/01 12:39:03;;;;;;;10.33;9.23;;;5.60;99.90;;;;;;5045246;28;20206;-63
2023/12/01 12:41:31;;;;;;;10.07;9.07;;;5.80;99.90;;;;;;5043357;28;20671;-62
2023/12/01 12:43:58;;;;;;;10.77;9.68;;;5.80;99.90;;;;;;5040317;28;20437;-60
2023/12/01 12:46:27;;;;;;;10.60;8.90;;;5.90;99.90;;;;;;5041517;28;20437;-61
2023/12/01 12:48:56;;;;;;;9.53;8.63;;;6.10;99.90;;;;;;5044529;28;20220;-60